Terminal Aerodrome Forecast
Issued by NWS Wakefield, VA

Home | Current Version | Previous Version | Text Only | Print | Product List | Glossary On
Versions: 1 2 3 4 5 6 7 8 9 10 11 12 13 14 15 16 17 18 19 20 21
618
FTUS41 KAKQ 280531
TAFORF
TAF
KORF 280531Z 2806/2906 21007KT P6SM SCT250
     FM281200 22005KT P6SM BKN100
     FM281500 20005KT P6SM VCSH BKN100
     FM281800 17007KT 6SM SHRA OVC080
     FM290000 15009KT 6SM SHRA OVC020=

USA.gov is the U.S. government's official web portal to all federal, state and local government web resources and services.